Time;durP1;ratioP1;P1;durP2;ratioP2;P2;SDS_P1;SDS_P2;PMS_P1;PMS_P2;Temp;Humidity;BMP_temperature;BMP_pressure;BME280_temperature;BME280_humidity;BME280_pressure;Samples;Min_cycle;Max_cycle;Signal;HPM_P1;HPM_P2
2021/04/12 00:02:02;;;;;;;7.10;4.30;;;;;;;;;;5095996;28;20032;-64
2021/04/12 00:04:31;;;;;;;5.70;3.70;;;;;;;;;;5095172;28;20036;-65
2021/04/12 00:07:03;;;;;;;7.80;3.83;;;;;;;;;;5097138;28;20112;-66
2021/04/12 00:09:58;;;;;;;5.40;3.75;;;;;;;;;;5103306;28;20031;-66
2021/04/12 00:12:46;;;;;;;5.70;4.17;;;;;;;;;;5099978;28;20039;-66
2021/04/12 00:15:20;;;;;;;8.60;5.22;;;;;;;;;;5094896;28;20354;-64
2021/04/12 00:17:47;;;;;;;6.90;5.20;;;;;;;;;;5111216;28;20028;-64
2021/04/12 00:20:25;;;;;;;10.10;4.97;;;;;;;;;;5097273;28;20479;-65
2021/04/12 00:22:53;;;;;;;6.95;4.93;;;;;;;;;;5095789;28;20634;-65
2021/04/12 00:25:39;;;;;;;7.68;5.75;;;;;;;;;;5095037;28;20044;-65
2021/04/12 00:28:08;;;;;;;6.28;4.70;;;;;;;;;;5095227;28;20032;-64
2021/04/12 00:30:38;;;;;;;11.05;6.13;;;;;;;;;;5095473;28;20020;-65
2021/04/12 00:33:12;;;;;;;7.82;5.20;;;;;;;;;;5095622;28;20020;-64
2021/04/12 00:35:43;;;;;;;5.55;4.20;;;;;;;;;;5095196;28;20074;-65
2021/04/12 00:38:18;;;;;;;6.50;4.25;;;;;;;;;;5095318;28;20028;-64
2021/04/12 00:40:53;;;;;;;6.85;4.45;;;;;;;;;;5092602;28;20082;-67
2021/04/12 00:43:31;;;;;;;6.75;4.30;;;;;;;;;;5113466;28;20020;-65
2021/04/12 00:46:16;;;;;;;6.47;5.03;;;;;;;;;;5078372;28;20031;-65
2021/04/12 00:48:52;;;;;;;8.77;4.80;;;;;;;;;;5095504;28;20024;-66
2021/04/12 00:51:37;;;;;;;5.95;3.97;;;;;;;;;;5075954;28;20070;-65
2021/04/12 00:54:21;;;;;;;5.47;4.10;;;;;;;;;;5095451;28;20043;-66
2021/04/12 00:56:55;;;;;;;5.10;3.67;;;;;;;;;;5114962;28;20084;-65
2021/04/12 00:59:27;;;;;;;6.10;3.97;;;;;;;;;;5097029;28;20035;-66
2021/04/12 01:01:56;;;;;;;9.32;4.03;;;;;;;;;;5094268;28;20028;-66
2021/04/12 01:04:28;;;;;;;5.50;3.70;;;;;;;;;;5095139;28;20020;-66
2021/04/12 01:07:00;;;;;;;5.93;3.30;;;;;;;;;;5094241;28;20040;-65
2021/04/12 01:09:29;;;;;;;4.28;3.55;;;;;;;;;;5095472;28;20026;-66
2021/04/12 01:12:01;;;;;;;4.90;3.63;;;;;;;;;;5112716;28;20028;-66
2021/04/12 01:14:46;;;;;;;6.22;4.10;;;;;;;;;;5097690;28;20117;-66
2021/04/12 01:17:37;;;;;;;7.00;4.20;;;;;;;;;;5074653;28;20025;-66
2021/04/12 01:20:03;;;;;;;6.72;3.67;;;;;;;;;;5094739;28;20036;-65
2021/04/12 01:22:29;;;;;;;5.65;3.97;;;;;;;;;;5111737;28;20626;-66
2021/04/12 01:25:07;;;;;;;4.90;3.60;;;;;;;;;;5109959;28;20129;-65
2021/04/12 01:28:12;;;;;;;7.50;3.95;;;;;;;;;;5086949;28;20139;-65
2021/04/12 01:30:41;;;;;;;4.10;3.70;;;;;;;;;;5050517;28;20025;-65
2021/04/12 01:33:26;;;;;;;10.80;4.65;;;;;;;;;;5051684;28;20040;-65
2021/04/12 01:35:52;;;;;;;6.40;4.65;;;;;;;;;;5077764;28;20040;-66
2021/04/12 01:38:27;;;;;;;7.85;4.10;;;;;;;;;;5093675;28;20063;-66
2021/04/12 01:41:22;;;;;;;5.95;4.10;;;;;;;;;;5100903;28;20074;-65
2021/04/12 01:44:06;;;;;;;7.47;4.35;;;;;;;;;;5042172;28;20048;-65
2021/04/12 01:46:36;;;;;;;5.47;3.95;;;;;;;;;;5099211;28;20024;-65
2021/04/12 01:49:13;;;;;;;6.25;4.57;;;;;;;;;;5093770;28;20055;-65
2021/04/12 01:51:45;;;;;;;6.20;3.97;;;;;;;;;;5093994;28;20029;-65
2021/04/12 01:54:33;;;;;;;5.70;4.00;;;;;;;;;;5093854;28;20028;-65
2021/04/12 01:57:17;;;;;;;7.13;4.65;;;;;;;;;;5098525;28;20073;-66
2021/04/12 01:59:43;;;;;;;6.65;4.15;;;;;;;;;;5092978;28;20024;-65
2021/04/12 02:02:12;;;;;;;5.43;3.88;;;;;;;;;;5093763;28;20032;-65
2021/04/12 02:05:02;;;;;;;6.43;4.03;;;;;;;;;;5093070;28;20103;-66
2021/04/12 02:07:33;;;;;;;5.60;3.58;;;;;;;;;;5093409;28;20031;-65
2021/04/12 02:10:02;;;;;;;5.95;3.83;;;;;;;;;;5093032;28;20024;-65
2021/04/12 02:12:28;;;;;;;6.32;4.38;;;;;;;;;;5093841;28;20099;-66
2021/04/12 02:15:01;;;;;;;6.72;4.00;;;;;;;;;;5095909;28;20043;-65
2021/04/12 02:17:45;;;;;;;7.28;4.10;;;;;;;;;;5093627;28;20024;-65
2021/04/12 02:20:38;;;;;;;4.40;3.85;;;;;;;;;;5093752;28;20020;-65
2021/04/12 02:23:09;;;;;;;6.57;5.03;;;;;;;;;;5076346;28;20034;-66
2021/04/12 02:25:42;;;;;;;8.07;5.57;;;;;;;;;;5083865;28;20127;-65
2021/04/12 02:28:23;;;;;;;5.03;3.83;;;;;;;;;;5093166;28;20024;-65
2021/04/12 02:31:04;;;;;;;6.85;4.72;;;;;;;;;;5093733;28;20089;-65
2021/04/12 02:33:39;;;;;;;5.07;4.03;;;;;;;;;;5093049;28;20020;-65
2021/04/12 02:36:05;;;;;;;6.53;4.50;;;;;;;;;;5085102;28;20635;-65
2021/04/12 02:38:34;;;;;;;6.45;4.47;;;;;;;;;;5093017;28;20028;-65
2021/04/12 02:41:15;;;;;;;6.78;4.90;;;;;;;;;;5105714;28;20032;-65
2021/04/12 02:43:54;;;;;;;6.40;5.07;;;;;;;;;;5113796;28;20041;-66
2021/04/12 02:46:39;;;;;;;8.27;5.20;;;;;;;;;;5082592;28;20052;-65
2021/04/12 02:49:19;;;;;;;9.02;5.10;;;;;;;;;;5092937;28;20063;-65
2021/04/12 02:51:48;;;;;;;6.90;5.10;;;;;;;;;;5092680;28;20051;-66
2021/04/12 02:54:40;;;;;;;8.88;4.95;;;;;;;;;;5092444;28;20027;-65
2021/04/12 02:57:06;;;;;;;7.25;5.45;;;;;;;;;;5063907;28;20041;-65
2021/04/12 02:59:32;;;;;;;8.18;4.85;;;;;;;;;;5106979;28;20034;-65
2021/04/12 03:01:58;;;;;;;6.78;5.10;;;;;;;;;;5095074;28;20028;-64
2021/04/12 03:04:39;;;;;;;5.13;4.40;;;;;;;;;;5092669;28;20036;-65
2021/04/12 03:07:12;;;;;;;9.00;5.32;;;;;;;;;;5092224;28;20527;-66
2021/04/12 03:09:41;;;;;;;7.32;4.75;;;;;;;;;;5095629;28;20016;-62
2021/04/12 03:12:10;;;;;;;7.53;4.57;;;;;;;;;;5110099;28;20024;-65
2021/04/12 03:14:42;;;;;;;6.15;4.70;;;;;;;;;;5113830;28;20385;-65
2021/04/12 03:17:19;;;;;;;8.77;4.65;;;;;;;;;;5095290;28;20036;-64
2021/04/12 03:20:04;;;;;;;7.43;5.47;;;;;;;;;;5107071;28;20436;-66
2021/04/12 03:22:49;;;;;;;7.03;5.25;;;;;;;;;;5091785;28;20032;-65
2021/04/12 03:25:33;;;;;;;6.97;5.45;;;;;;;;;;5092264;28;20072;-66
2021/04/12 03:28:18;;;;;;;11.60;5.45;;;;;;;;;;5080166;28;20024;-66
2021/04/12 03:31:10;;;;;;;6.28;4.82;;;;;;;;;;5102460;28;20020;-65
2021/04/12 03:33:48;;;;;;;7.72;5.60;;;;;;;;;;5075340;28;20028;-66
2021/04/12 03:36:20;;;;;;;7.25;5.43;;;;;;;;;;5092362;28;20107;-65
2021/04/12 03:39:05;;;;;;;6.90;4.85;;;;;;;;;;5091802;28;20169;-65
2021/04/12 03:41:49;;;;;;;7.63;4.88;;;;;;;;;;5095826;28;20027;-65
2021/04/12 03:44:40;;;;;;;7.20;5.47;;;;;;;;;;5105387;28;20035;-64
2021/04/12 03:47:13;;;;;;;6.72;5.32;;;;;;;;;;5091968;28;20070;-65
2021/04/12 03:50:05;;;;;;;10.10;5.68;;;;;;;;;;5092113;28;20078;-65
2021/04/12 03:52:50;;;;;;;6.35;5.10;;;;;;;;;;5089925;28;20040;-66
2021/04/12 03:55:28;;;;;;;6.68;5.18;;;;;;;;;;5089593;28;20631;-65
2021/04/12 03:57:59;;;;;;;6.40;5.40;;;;;;;;;;5091947;28;20097;-65
2021/04/12 04:00:40;;;;;;;13.05;5.95;;;;;;;;;;5090305;28;20032;-65
2021/04/12 04:03:25;;;;;;;7.25;5.47;;;;;;;;;;5091736;28;20449;-66
2021/04/12 04:06:10;;;;;;;8.93;6.13;;;;;;;;;;5091654;28;20107;-65
2021/04/12 04:08:49;;;;;;;8.40;6.18;;;;;;;;;;5091427;28;20016;-66
2021/04/12 04:11:40;;;;;;;8.07;5.68;;;;;;;;;;5091907;28;20024;-66
2021/04/12 04:14:27;;;;;;;9.07;6.22;;;;;;;;;;5091903;28;20031;-65
2021/04/12 04:17:11;;;;;;;8.00;5.82;;;;;;;;;;5098323;28;20514;-65
2021/04/12 04:19:37;;;;;;;10.82;5.32;;;;;;;;;;5097473;28;20043;-67
2021/04/12 04:22:22;;;;;;;6.68;5.57;;;;;;;;;;5091657;28;20032;-67
2021/04/12 04:25:00;;;;;;;12.20;6.70;;;;;;;;;;5078991;28;20032;-66
2021/04/12 04:27:31;;;;;;;7.90;5.28;;;;;;;;;;5092077;28;20482;-65
2021/04/12 04:30:01;;;;;;;7.70;4.80;;;;;;;;;;5089075;28;20380;-66
2021/04/12 04:32:43;;;;;;;9.30;5.15;;;;;;;;;;5095002;28;20024;-65
2021/04/12 04:35:26;;;;;;;7.35;5.00;;;;;;;;;;5115125;28;20026;-65
2021/04/12 04:38:18;;;;;;;6.13;5.05;;;;;;;;;;5096593;28;20107;-66
2021/04/12 04:40:53;;;;;;;8.82;5.20;;;;;;;;;;5077386;28;20467;-65
2021/04/12 04:43:38;;;;;;;6.68;5.13;;;;;;;;;;5080381;28;20050;-65
2021/04/12 04:46:13;;;;;;;5.32;4.80;;;;;;;;;;5077137;28;20028;-65
2021/04/12 04:48:54;;;;;;;7.75;4.85;;;;;;;;;;5088156;28;20052;-66
2021/04/12 04:51:20;;;;;;;7.95;4.90;;;;;;;;;;5095203;28;20020;-65
2021/04/12 04:53:55;;;;;;;7.10;4.97;;;;;;;;;;5094412;28;20028;-65
2021/04/12 04:56:26;;;;;;;6.88;4.80;;;;;;;;;;5095114;28;20081;-65
2021/04/12 04:58:52;;;;;;;7.07;5.43;;;;;;;;;;5099551;28;20116;-66
2021/04/12 05:01:39;;;;;;;7.90;5.00;;;;;;;;;;5101759;28;20039;-65
2021/04/12 05:04:23;;;;;;;6.78;4.65;;;;;;;;;;5101180;28;20116;-66
2021/04/12 05:07:25;;;;;;;6.47;4.60;;;;;;;;;;5101619;28;20390;-66
2021/04/12 05:10:06;;;;;;;6.90;4.43;;;;;;;;;;5038447;28;20110;-66
2021/04/12 05:12:35;;;;;;;6.78;4.88;;;;;;;;;;5089041;28;20110;-65
2021/04/12 05:15:20;;;;;;;6.60;5.13;;;;;;;;;;5109984;28;20016;-65
2021/04/12 05:17:46;;;;;;;7.55;4.25;;;;;;;;;;5114815;28;20023;-65
2021/04/12 05:20:15;;;;;;;5.22;4.55;;;;;;;;;;5115854;28;20500;-66
2021/04/12 05:22:56;;;;;;;7.05;4.68;;;;;;;;;;5095545;28;20027;-66
2021/04/12 05:25:25;;;;;;;8.95;4.80;;;;;;;;;;5094364;28;20044;-64
2021/04/12 05:27:57;;;;;;;6.70;4.72;;;;;;;;;;5094844;28;20053;-64
2021/04/12 05:30:42;;;;;;;7.72;5.50;;;;;;;;;;5094425;28;20035;-64
2021/04/12 05:33:11;;;;;;;7.75;4.65;;;;;;;;;;5090743;28;20031;-64
2021/04/12 05:35:49;;;;;;;8.02;4.95;;;;;;;;;;5093908;28;20035;-65
2021/04/12 05:38:34;;;;;;;7.45;5.20;;;;;;;;;;5093839;28;20073;-65
2021/04/12 05:41:00;;;;;;;9.25;5.45;;;;;;;;;;5077530;28;20553;-66
2021/04/12 05:43:38;;;;;;;8.18;5.15;;;;;;;;;;5094131;28;20027;-65
2021/04/12 05:46:07;;;;;;;7.50;5.50;;;;;;;;;;5080659;28;20046;-64
2021/04/12 05:48:36;;;;;;;7.07;5.32;;;;;;;;;;5093475;28;20099;-65
2021/04/12 05:51:08;;;;;;;6.30;5.20;;;;;;;;;;5093610;28;20120;-64
2021/04/12 05:53:34;;;;;;;7.75;5.63;;;;;;;;;;5093864;28;20024;-64
2021/04/12 05:56:19;;;;;;;7.32;4.78;;;;;;;;;;5098352;28;20031;-65
2021/04/12 05:59:11;;;;;;;6.85;5.20;;;;;;;;;;5110324;28;20042;-64
2021/04/12 06:01:43;;;;;;;7.13;5.43;;;;;;;;;;5090078;28;20533;-64
2021/04/12 06:04:10;;;;;;;8.82;5.63;;;;;;;;;;5093001;28;20051;-65
2021/04/12 06:06:54;;;;;;;7.18;5.10;;;;;;;;;;5084819;28;20432;-66
2021/04/12 06:09:39;;;;;;;7.15;4.95;;;;;;;;;;5093538;28;20027;-66
2021/04/12 06:12:08;;;;;;;9.50;6.43;;;;;;;;;;5109666;28;20104;-66
2021/04/12 06:14:53;;;;;;;7.07;5.45;;;;;;;;;;5111240;28;20031;-66
2021/04/12 06:17:26;;;;;;;7.18;5.00;;;;;;;;;;5113216;28;20030;-64
2021/04/12 06:19:52;;;;;;;7.28;5.25;;;;;;;;;;5104387;28;20028;-66
2021/04/12 06:22:36;;;;;;;8.30;5.18;;;;;;;;;;5094331;28;20034;-66
2021/04/12 06:25:05;;;;;;;6.95;4.68;;;;;;;;;;5104362;28;20031;-66
2021/04/12 06:27:45;;;;;;;8.98;5.30;;;;;;;;;;5102953;28;20089;-66
2021/04/12 06:30:29;;;;;;;8.43;5.18;;;;;;;;;;5100503;28;20086;-64
2021/04/12 06:32:56;;;;;;;6.97;4.60;;;;;;;;;;5094575;28;20076;-66
2021/04/12 06:35:42;;;;;;;6.72;5.20;;;;;;;;;;5073233;28;20031;-65
2021/04/12 06:38:23;;;;;;;7.22;5.22;;;;;;;;;;5080276;28;20023;-64
2021/04/12 06:41:07;;;;;;;8.25;5.68;;;;;;;;;;5092347;28;20028;-64
2021/04/12 06:43:45;;;;;;;5.93;4.57;;;;;;;;;;5071880;28;20549;-65
2021/04/12 06:46:30;;;;;;;6.80;4.50;;;;;;;;;;5090922;28;20070;-64
2021/04/12 06:48:59;;;;;;;7.77;5.50;;;;;;;;;;5105110;28;20072;-64
2021/04/12 06:51:25;;;;;;;7.57;4.72;;;;;;;;;;5098039;28;20821;-65
2021/04/12 06:54:10;;;;;;;8.63;6.03;;;;;;;;;;5083729;28;20100;-66
2021/04/12 06:56:55;;;;;;;7.18;5.20;;;;;;;;;;5093625;28;20035;-65
2021/04/12 06:59:24;;;;;;;7.65;5.82;;;;;;;;;;5103970;28;20035;-64
2021/04/12 07:02:17;;;;;;;7.53;5.30;;;;;;;;;;5086987;28;20432;-65
2021/04/12 07:04:49;;;;;;;6.70;5.90;;;;;;;;;;5040584;28;20535;-67
2021/04/12 07:07:34;;;;;;;7.85;5.38;;;;;;;;;;5085136;28;20045;-65
2021/04/12 07:10:10;;;;;;;8.15;5.57;;;;;;;;;;5090548;28;20547;-65
2021/04/12 07:12:48;;;;;;;6.78;4.75;;;;;;;;;;5088118;28;20073;-65
2021/04/12 07:15:20;;;;;;;8.18;5.15;;;;;;;;;;5086598;28;20078;-66
2021/04/12 07:18:05;;;;;;;6.28;4.80;;;;;;;;;;5068182;28;20398;-66
2021/04/12 07:20:35;;;;;;;5.93;4.55;;;;;;;;;;5084713;28;20030;-65
2021/04/12 07:23:01;;;;;;;6.28;4.93;;;;;;;;;;5087942;28;20539;-65
2021/04/12 07:25:46;;;;;;;5.88;4.47;;;;;;;;;;5091662;28;20078;-64
2021/04/12 07:28:51;;;;;;;9.20;6.77;;;;;;;;;;5092063;28;20089;-63
2021/04/12 07:31:33;;;;;;;11.93;7.45;;;;;;;;;;5086963;28;20562;-65
2021/04/12 07:34:17;;;;;;;13.40;7.88;;;;;;;;;;5088345;28;20027;-66
2021/04/12 07:36:52;;;;;;;15.13;8.45;;;;;;;;;;5088086;28;20483;-66
2021/04/12 07:39:37;;;;;;;15.02;8.60;;;;;;;;;;5074452;28;20042;-64
2021/04/12 07:42:26;;;;;;;13.13;8.10;;;;;;;;;;5075949;28;20028;-65
2021/04/12 07:45:08;;;;;;;16.30;9.30;;;;;;;;;;5076025;28;20036;-63
2021/04/12 07:47:34;;;;;;;15.88;9.85;;;;;;;;;;5089762;28;20049;-67
2021/04/12 07:50:12;;;;;;;18.33;10.27;;;;;;;;;;5058877;28;20407;-65
2021/04/12 07:52:57;;;;;;;19.42;10.43;;;;;;;;;;5082415;28;20028;-65
2021/04/12 07:55:38;;;;;;;18.13;10.17;;;;;;;;;;5086801;28;20032;-63
2021/04/12 07:58:23;;;;;;;19.83;12.93;;;;;;;;;;5084628;28;20035;-66
2021/04/12 08:01:21;;;;;;;21.40;11.20;;;;;;;;;;5089977;28;20032;-65
2021/04/12 08:03:56;;;;;;;17.77;10.82;;;;;;;;;;5085120;28;20048;-65
2021/04/12 08:06:42;;;;;;;17.70;10.45;;;;;;;;;;5090049;28;20065;-65
2021/04/12 08:09:08;;;;;;;16.50;9.98;;;;;;;;;;5094618;28;20043;-65
2021/04/12 08:11:44;;;;;;;15.80;10.32;;;;;;;;;;5093125;28;20537;-67
2021/04/12 08:14:25;;;;;;;18.08;12.00;;;;;;;;;;5099000;28;20457;-66
2021/04/12 08:16:57;;;;;;;18.65;11.45;;;;;;;;;;5096597;28;20046;-65
2021/04/12 08:19:40;;;;;;;21.27;11.43;;;;;;;;;;5090935;28;20106;-65
2021/04/12 08:22:25;;;;;;;20.23;11.73;;;;;;;;;;5088648;28;20571;-66
2021/04/12 08:25:03;;;;;;;17.40;11.45;;;;;;;;;;5091210;28;20036;-65
2021/04/12 08:27:49;;;;;;;18.90;11.02;;;;;;;;;;5091452;28;20028;-65
2021/04/12 08:30:30;;;;;;;16.63;10.60;;;;;;;;;;5030378;28;20612;-64
2021/04/12 08:33:15;;;;;;;14.82;9.27;;;;;;;;;;5080315;28;20028;-67
2021/04/12 08:35:50;;;;;;;12.02;8.02;;;;;;;;;;5084407;28;20027;-65
2021/04/12 08:38:34;;;;;;;13.13;8.13;;;;;;;;;;5091725;28;20507;-66
2021/04/12 08:41:19;;;;;;;13.38;7.93;;;;;;;;;;5079526;28;20028;-67
2021/04/12 08:44:01;;;;;;;10.75;7.13;;;;;;;;;;5083140;28;20255;-68
2021/04/12 08:46:45;;;;;;;11.35;7.07;;;;;;;;;;5085495;28;20031;-67
2021/04/12 08:49:32;;;;;;;15.63;9.23;;;;;;;;;;5091109;28;20108;-68
2021/04/12 08:52:22;;;;;;;13.63;9.23;;;;;;;;;;5086935;28;20553;-68
2021/04/12 08:55:04;;;;;;;11.55;7.30;;;;;;;;;;5083546;28;20436;-67
2021/04/12 08:57:36;;;;;;;11.70;7.88;;;;;;;;;;5088506;28;20028;-68
2021/04/12 09:00:14;;;;;;;14.50;8.27;;;;;;;;;;5087303;28;20027;-68
2021/04/12 09:02:43;;;;;;;16.25;9.63;;;;;;;;;;5087990;28;20043;-68
2021/04/12 09:05:23;;;;;;;15.57;8.65;;;;;;;;;;5081241;28;20032;-67
2021/04/12 09:08:05;;;;;;;15.73;9.13;;;;;;;;;;5086498;28;20032;-65
2021/04/12 09:10:52;;;;;;;13.75;8.88;;;;;;;;;;5080049;28;20492;-66
2021/04/12 09:13:27;;;;;;;18.45;10.18;;;;;;;;;;5079343;28;20032;-66
2021/04/12 09:16:12;;;;;;;11.82;9.30;;;;;;;;;;5083854;28;20554;-66
2021/04/12 09:18:38;;;;;;;14.30;8.30;;;;;;;;;;5076965;28;20032;-67
2021/04/12 09:21:14;;;;;;;13.13;8.50;;;;;;;;;;5085320;28;20079;-66
2021/04/12 09:23:49;;;;;;;15.30;8.85;;;;;;;;;;5082023;28;20029;-67
2021/04/12 09:26:33;;;;;;;13.23;9.20;;;;;;;;;;5086069;28;20131;-66
2021/04/12 09:29:15;;;;;;;14.98;9.45;;;;;;;;;;5086043;28;20027;-69
2021/04/12 09:32:00;;;;;;;12.40;8.48;;;;;;;;;;5079335;28;20024;-67
2021/04/12 09:34:44;;;;;;;12.75;8.88;;;;;;;;;;5084292;28;20524;-68
2021/04/12 09:37:22;;;;;;;12.70;7.22;;;;;;;;;;5090088;28;20032;-68
2021/04/12 09:40:07;;;;;;;12.10;6.72;;;;;;;;;;5091601;28;20035;-66
2021/04/12 09:42:42;;;;;;;10.82;6.97;;;;;;;;;;5089967;28;20031;-66
2021/04/12 09:45:31;;;;;;;9.10;6.60;;;;;;;;;;5091161;28;20039;-68
2021/04/12 09:48:03;;;;;;;12.35;7.53;;;;;;;;;;5089901;28;20107;-67
2021/04/12 09:50:45;;;;;;;10.35;6.03;;;;;;;;;;5091311;28;20526;-67
2021/04/12 09:53:20;;;;;;;10.70;5.75;;;;;;;;;;5096306;28;20036;-67
2021/04/12 09:56:05;;;;;;;9.38;6.45;;;;;;;;;;5090233;28;20032;-66
2021/04/12 09:58:33;;;;;;;10.40;5.78;;;;;;;;;;5075920;28;20067;-65
2021/04/12 10:01:05;;;;;;;8.75;6.28;;;;;;;;;;5075943;28;20540;-66
2021/04/12 10:03:38;;;;;;;9.70;6.43;;;;;;;;;;5078807;28;20036;-65
2021/04/12 10:06:22;;;;;;;9.40;6.75;;;;;;;;;;5075689;28;20051;-66
2021/04/12 10:09:08;;;;;;;8.63;5.50;;;;;;;;;;5081325;28;20571;-65
2021/04/12 10:11:44;;;;;;;8.93;6.00;;;;;;;;;;5083591;28;20020;-65
2021/04/12 10:14:32;;;;;;;8.52;6.40;;;;;;;;;;5079395;28;20033;-66
2021/04/12 10:16:58;;;;;;;6.00;4.47;;;;;;;;;;5075587;28;20028;-65
2021/04/12 10:19:27;;;;;;;5.75;4.45;;;;;;;;;;5077958;28;20097;-66
2021/04/12 10:21:56;;;;;;;7.70;4.43;;;;;;;;;;5081878;28;20437;-65
2021/04/12 10:24:27;;;;;;;8.73;5.50;;;;;;;;;;5079843;28;20039;-67
2021/04/12 10:26:57;;;;;;;6.45;5.63;;;;;;;;;;5073965;28;20040;-66
2021/04/12 10:29:23;;;;;;;6.35;5.07;;;;;;;;;;5098799;28;20395;-67
2021/04/12 10:32:09;;;;;;;6.18;4.22;;;;;;;;;;5093567;28;20133;-67
2021/04/12 10:34:41;;;;;;;8.77;5.05;;;;;;;;;;5076246;28;20044;-67
2021/04/12 10:37:07;;;;;;;6.53;4.95;;;;;;;;;;5081498;28;21627;-67
2021/04/12 10:39:51;;;;;;;6.97;4.93;;;;;;;;;;5074004;28;20024;-65
2021/04/12 10:42:30;;;;;;;5.60;3.10;;;;;;;;;;5078198;28;20024;-67
2021/04/12 10:45:08;;;;;;;5.50;3.22;;;;;;;;;;5094716;28;20028;-66
2021/04/12 10:47:43;;;;;;;3.95;2.50;;;;;;;;;;5089544;28;20058;-65
2021/04/12 10:50:09;;;;;;;4.38;2.40;;;;;;;;;;5092952;28;20028;-65
2021/04/12 10:52:35;;;;;;;3.00;2.42;;;;;;;;;;5094866;28;20030;-66
2021/04/12 10:55:14;;;;;;;3.38;2.33;;;;;;;;;;5091382;28;20031;-66
2021/04/12 11:00:55;;;;;;;;;;;;;;;;;;5110102;27;20369;-65
2021/04/12 11:03:21;;;;;;;;;;;;;;;;;;5104097;28;20285;-65
2021/04/12 11:05:55;;;;;;;5.10;2.55;;;;;;;;;;5100497;28;19920;-65
2021/04/12 11:08:35;;;;;;;8.82;3.85;;;;;;;;;;5106998;28;20032;-66
2021/04/12 11:11:27;;;;;;;3.35;2.72;;;;;;;;;;5101935;28;20274;-67
2021/04/12 11:14:13;;;;;;;5.63;3.63;;;;;;;;;;5069530;28;20040;-66
2021/04/12 11:16:45;;;;;;;3.40;2.85;;;;;;;;;;5107484;28;20030;-66
2021/04/12 11:19:18;;;;;;;4.20;3.47;;;;;;;;;;5103986;28;20028;-66
2021/04/12 11:21:44;;;;;;;4.30;2.83;;;;;;;;;;5101995;28;20375;-65
2021/04/12 11:24:14;;;;;;;5.43;2.78;;;;;;;;;;5104429;28;20359;-65
2021/04/12 11:26:59;;;;;;;4.32;2.67;;;;;;;;;;5106449;28;20034;-64
2021/04/12 11:29:29;;;;;;;4.83;2.70;;;;;;;;;;5106143;28;20043;-65
2021/04/12 11:32:06;;;;;;;3.85;2.50;;;;;;;;;;5104957;28;20036;-65
2021/04/12 11:34:46;;;;;;;3.17;2.72;;;;;;;;;;5105960;28;20028;-66
2021/04/12 11:37:21;;;;;;;2.75;2.22;;;;;;;;;;5105629;28;20050;-66
2021/04/12 11:40:05;;;;;;;4.32;2.50;;;;;;;;;;5083102;28;20440;-66
2021/04/12 11:42:39;;;;;;;3.35;2.17;;;;;;;;;;5104369;28;20024;-65
2021/04/12 11:45:11;;;;;;;4.20;2.30;;;;;;;;;;5103275;28;20521;-65
2021/04/12 11:47:57;;;;;;;5.75;2.90;;;;;;;;;;5104092;28;20139;-66
2021/04/12 11:50:23;;;;;;;6.80;3.65;;;;;;;;;;5072000;28;20040;-65
2021/04/12 11:53:12;;;;;;;5.35;3.55;;;;;;;;;;5102009;28;20109;-66
2021/04/12 11:55:41;;;;;;;4.97;2.92;;;;;;;;;;5100217;28;20034;-65
2021/04/12 11:58:25;;;;;;;6.30;3.00;;;;;;;;;;5099849;28;20031;-64
2021/04/12 12:01:00;;;;;;;4.90;3.10;;;;;;;;;;5101916;28;20056;-65
2021/04/12 12:03:26;;;;;;;;;;;;;;;;;;5104284;28;20061;-64
2021/04/12 12:05:52;;;;;;;;;;;;;;;;;;5104346;28;19918;-67
2021/04/12 12:08:22;;;;;;;3.65;2.53;;;;;;;;;;5087640;28;19962;-66
2021/04/12 12:10:48;;;;;;;4.18;2.67;;;;;;;;;;5095474;28;20038;-67
2021/04/12 12:13:24;;;;;;;4.38;2.80;;;;;;;;;;5088930;28;20073;-67
2021/04/12 12:16:10;;;;;;;5.70;2.80;;;;;;;;;;5094007;28;20058;-68
2021/04/12 12:18:38;;;;;;;5.50;2.55;;;;;;;;;;5082635;28;20047;-66
2021/04/12 12:21:13;;;;;;;3.95;2.35;;;;;;;;;;5093917;28;20031;-65
2021/04/12 12:23:39;;;;;;;;;;;;;;;;;;5090191;28;20036;-67
2021/04/12 12:26:07;;;;;;;10.65;3.38;;;;;;;;;;5090334;28;20267;-68
2021/04/12 12:28:38;;;;;;;8.90;3.08;;;;;;;;;;5095277;28;20107;-65
2021/04/12 12:31:10;;;;;;;6.72;3.00;;;;;;;;;;5080865;28;20486;-67
2021/04/12 12:33:52;;;;;;;3.95;2.58;;;;;;;;;;5091219;28;20028;-65
2021/04/12 12:36:37;;;;;;;4.03;2.30;;;;;;;;;;5092968;28;20028;-64
2021/04/12 12:39:26;;;;;;;3.50;2.45;;;;;;;;;;5091193;28;20081;-66
2021/04/12 12:41:52;;;;;;;2.92;2.60;;;;;;;;;;5075868;28;20110;-65
2021/04/12 12:44:22;;;;;;;2.38;2.03;;;;;;;;;;5087379;28;20028;-66
2021/04/12 12:46:49;;;;;;;3.03;2.00;;;;;;;;;;5089629;28;20027;-65
2021/04/12 12:49:25;;;;;;;3.15;2.00;;;;;;;;;;5094888;28;20027;-66
2021/04/12 12:51:59;;;;;;;2.92;2.00;;;;;;;;;;5089433;28;20078;-67
2021/04/12 12:54:34;;;;;;;3.50;2.30;;;;;;;;;;5093390;28;20039;-66
2021/04/12 12:57:03;;;;;;;3.42;2.30;;;;;;;;;;5089416;28;20646;-66
2021/04/12 12:59:33;;;;;;;2.08;1.88;;;;;;;;;;5088353;28;20081;-65
2021/04/12 13:02:11;;;;;;;2.67;2.38;;;;;;;;;;5087257;28;20109;-66
2021/04/12 13:04:37;;;;;;;3.55;2.10;;;;;;;;;;5087049;28;20039;-67
2021/04/12 13:07:11;;;;;;;3.25;2.50;;;;;;;;;;5089000;28;20401;-67
2021/04/12 13:09:39;;;;;;;2.55;2.20;;;;;;;;;;5091550;28;20024;-67
2021/04/12 13:12:05;;;;;;;2.90;2.40;;;;;;;;;;5091989;28;20019;-67
2021/04/12 13:14:34;;;;;;;3.13;2.30;;;;;;;;;;5088616;28;20056;-66
2021/04/12 13:17:01;;;;;;;2.53;2.00;;;;;;;;;;5082963;28;20086;-67
2021/04/12 13:19:42;;;;;;;5.15;2.13;;;;;;;;;;5088741;28;20035;-68
2021/04/12 13:22:09;;;;;;;2.83;2.05;;;;;;;;;;5087426;28;20032;-66
2021/04/12 13:24:36;;;;;;;4.22;2.38;;;;;;;;;;5088518;28;20483;-68
2021/04/12 13:27:12;;;;;;;2.97;2.40;;;;;;;;;;5084951;28;20025;-68
2021/04/12 13:29:46;;;;;;;2.97;2.40;;;;;;;;;;5090190;28;20511;-70
2021/04/12 13:32:14;;;;;;;3.47;1.95;;;;;;;;;;5090535;28;20039;-70
2021/04/12 13:35:09;;;;;;;2.10;1.90;;;;;;;;;;5086222;28;20032;-68
2021/04/12 13:37:37;;;;;;;1.80;1.70;;;;;;;;;;5075448;28;20078;-69
2021/04/12 13:40:09;;;;;;;2.03;1.70;;;;;;;;;;5087798;28;20063;-69
2021/04/12 13:42:47;;;;;;;1.85;1.73;;;;;;;;;;5087682;28;20091;-69
2021/04/12 13:45:14;;;;;;;2.03;1.80;;;;;;;;;;5089883;28;20085;-67
2021/04/12 13:47:49;;;;;;;2.80;1.90;;;;;;;;;;5091408;28;20024;-67
2021/04/12 13:50:15;;;;;;;1.75;1.60;;;;;;;;;;5088156;28;20028;-67
2021/04/12 13:52:50;;;;;;;2.20;1.98;;;;;;;;;;5090453;28;20116;-67
2021/04/12 13:55:27;;;;;;;2.65;1.85;;;;;;;;;;5087997;28;20078;-66
2021/04/12 13:57:56;;;;;;;3.28;2.05;;;;;;;;;;5088099;28;20035;-66
2021/04/12 14:00:26;;;;;;;3.17;2.20;;;;;;;;;;5090580;28;20047;-65
2021/04/12 14:03:05;;;;;;;3.70;2.40;;;;;;;;;;5088271;28;20387;-71
2021/04/12 14:05:34;;;;;;;2.95;1.95;;;;;;;;;;5088067;28;20031;-63
2021/04/12 14:08:12;;;;;;;2.60;2.15;;;;;;;;;;5086426;28;20028;-65
2021/04/12 14:10:43;;;;;;;5.28;3.08;;;;;;;;;;5086574;28;20036;-66
2021/04/12 14:13:13;;;;;;;3.33;2.67;;;;;;;;;;5086469;28;20028;-64
2021/04/12 14:15:39;;;;;;;5.60;4.72;;;;;;;;;;5084979;28;20027;-64
2021/04/12 14:18:07;;;;;;;3.35;2.92;;;;;;;;;;5089257;28;20032;-65
2021/04/12 14:20:47;;;;;;;3.03;2.08;;;;;;;;;;5086872;28;20028;-65
2021/04/12 14:23:23;;;;;;;4.72;3.65;;;;;;;;;;5085998;28;20028;-64
2021/04/12 14:25:58;;;;;;;5.50;4.55;;;;;;;;;;5085987;28;20028;-65
2021/04/12 14:28:26;;;;;;;8.15;5.93;;;;;;;;;;5090969;28;20115;-66
2021/04/12 14:30:58;;;;;;;3.92;2.45;;;;;;;;;;5087206;28;20042;-66
2021/04/12 14:33:39;;;;;;;3.25;2.75;;;;;;;;;;5091684;28;20027;-66
2021/04/12 14:36:20;;;;;;;3.22;2.58;;;;;;;;;;5085236;28;20054;-65
2021/04/12 14:38:47;;;;;;;3.65;2.15;;;;;;;;;;5086736;28;20046;-63
2021/04/12 14:41:18;;;;;;;2.72;2.20;;;;;;;;;;5089918;28;20016;-63
2021/04/12 14:43:51;;;;;;;2.13;1.90;;;;;;;;;;5070527;28;20032;-64
2021/04/12 14:46:19;;;;;;;3.38;2.42;;;;;;;;;;5084084;28;20473;-64
2021/04/12 14:48:45;;;;;;;2.92;2.28;;;;;;;;;;5082626;28;20947;-63
2021/04/12 14:51:15;;;;;;;1.90;1.70;;;;;;;;;;5086006;28;20020;-64
2021/04/12 14:53:44;;;;;;;3.55;2.17;;;;;;;;;;5086100;28;20027;-65
2021/04/12 14:56:17;;;;;;;4.13;2.10;;;;;;;;;;5095216;28;20048;-66
2021/04/12 14:58:48;;;;;;;3.70;1.90;;;;;;;;;;5087232;28;20054;-65
2021/04/12 15:01:20;;;;;;;1.90;1.80;;;;;;;;;;5073105;28;20021;-65
2021/04/12 15:03:55;;;;;;;2.55;2.35;;;;;;;;;;5072283;28;20028;-66
2021/04/12 15:06:36;;;;;;;1.85;1.70;;;;;;;;;;5091314;28;20527;-65
2021/04/12 15:09:05;;;;;;;2.05;1.85;;;;;;;;;;5088896;28;20032;-65
2021/04/12 15:11:39;;;;;;;2.75;2.00;;;;;;;;;;5091217;28;20051;-64
2021/04/12 15:14:31;;;;;;;2.20;2.00;;;;;;;;;;5086617;28;20111;-63
2021/04/12 15:17:27;;;;;;;3.08;2.50;;;;;;;;;;5091145;28;20055;-63
2021/04/12 15:19:56;;;;;;;3.58;2.40;;;;;;;;;;5076607;28;20337;-64
2021/04/12 15:22:30;;;;;;;3.25;2.20;;;;;;;;;;5091471;28;20016;-66
2021/04/12 15:25:03;;;;;;;2.72;2.20;;;;;;;;;;5084898;28;20035;-65
2021/04/12 15:27:30;;;;;;;2.83;2.30;;;;;;;;;;5087108;28;20603;-63
2021/04/12 15:29:56;;;;;;;5.20;4.22;;;;;;;;;;5093360;28;20505;-64
2021/04/12 15:32:28;;;;;;;3.13;2.60;;;;;;;;;;5092833;28;20036;-65
2021/04/12 15:34:56;;;;;;;3.58;3.28;;;;;;;;;;5089272;28;20032;-64
2021/04/12 15:37:40;;;;;;;3.15;2.85;;;;;;;;;;5093572;28;20023;-65
2021/04/12 15:40:10;;;;;;;3.58;2.50;;;;;;;;;;5091469;28;20058;-65